createdAt,value
2017-09-13T00:00:19.191Z,83.08
2017-09-13T00:00:45.338Z,82.6
2017-09-13T00:01:11.482Z,82.7
2017-09-13T00:01:37.626Z,82.51
2017-09-13T00:02:03.787Z,82.79
2017-09-13T00:02:29.922Z,82.83
2017-09-13T00:02:56.066Z,82.79
2017-09-13T00:03:22.214Z,82.79
2017-09-13T00:03:48.362Z,82.17
2017-09-13T00:04:14.523Z,82.93
2017-09-13T00:04:40.668Z,82.22
2017-09-13T00:05:06.821Z,82.35
2017-09-13T00:05:32.962Z,83.12
2017-09-13T00:05:59.113Z,82.74
2017-09-13T00:06:25.255Z,82.07
2017-09-13T00:06:51.408Z,82.64
2017-09-13T00:07:17.551Z,82.45
2017-09-13T00:07:43.696Z,82.07
2017-09-13T00:08:09.844Z,82.31
2017-09-13T00:08:35.991Z,81.97
2017-09-13T00:09:02.141Z,82.45
2017-09-13T00:09:28.284Z,82.45
2017-09-13T00:09:54.434Z,82.45
2017-09-13T00:10:20.582Z,82.35
2017-09-13T00:10:46.722Z,81.97
2017-09-13T00:11:12.877Z,82.45
2017-09-13T00:11:39.020Z,82.07
2017-09-13T00:12:05.168Z,82.07
2017-09-13T00:12:31.396Z,82.17
2017-09-13T00:12:57.540Z,82.26
2017-09-13T00:13:23.717Z,82.35
2017-09-13T00:13:49.873Z,82.17
2017-09-13T00:14:16.082Z,82.35
2017-09-13T00:14:42.225Z,82.07
2017-09-13T00:15:08.418Z,82.22
2017-09-13T00:15:34.531Z,82.35
2017-09-13T00:16:00.685Z,82.35
2017-09-13T00:16:26.827Z,82.26
2017-09-13T00:16:53.046Z,82.03
2017-09-13T00:17:19.180Z,81.84
2017-09-13T00:17:45.324Z,81.78
2017-09-13T00:18:11.479Z,82.07
2017-09-13T00:18:37.630Z,82.41
2017-09-13T00:19:03.872Z,82.45
2017-09-13T00:19:30.036Z,81.97
2017-09-13T00:19:56.186Z,81.74
2017-09-13T00:20:22.337Z,81.88
2017-09-13T00:20:48.505Z,81.88
2017-09-13T00:21:14.649Z,81.59
2017-09-13T00:21:40.792Z,82.03
2017-09-13T00:22:06.946Z,82.03
2017-09-13T00:22:33.086Z,82.07
2017-09-13T00:22:59.239Z,82.07
2017-09-13T00:23:25.388Z,81.97
2017-09-13T00:23:51.527Z,81.74
2017-09-13T00:24:17.678Z,81.65
2017-09-13T00:24:43.825Z,81.78
2017-09-13T00:25:10.098Z,81.88
2017-09-13T00:25:36.287Z,81.49
2017-09-13T00:26:02.438Z,81.26
2017-09-13T00:26:28.586Z,81.3
2017-09-13T00:26:54.729Z,81.4
2017-09-13T00:27:20.877Z,81.45
2017-09-13T00:27:47.022Z,81.59
2017-09-13T00:28:13.171Z,81.49
2017-09-13T00:28:39.317Z,81.59
2017-09-13T00:29:05.458Z,81.49
2017-09-13T00:29:31.615Z,81.49
2017-09-13T00:29:57.787Z,81.11
2017-09-13T00:30:23.930Z,80.92
2017-09-13T00:30:50.076Z,80.73
2017-09-13T00:31:16.246Z,80.92
2017-09-13T00:31:42.389Z,81.26
2017-09-13T00:32:08.533Z,81.3
2017-09-13T00:32:34.684Z,81.21
2017-09-13T00:33:00.825Z,81.49
2017-09-13T00:33:26.973Z,81.68
2017-09-13T00:33:53.122Z,81.45
2017-09-13T00:34:19.266Z,81.26
2017-09-13T00:34:45.414Z,81.4
2017-09-13T00:35:11.767Z,81.36
2017-09-13T00:35:37.907Z,81.4
2017-09-13T00:36:04.054Z,81.59
2017-09-13T00:36:30.200Z,81.4
2017-09-13T00:36:56.358Z,81.68
2017-09-13T00:37:22.506Z,81.59
2017-09-13T00:37:48.653Z,81.49
2017-09-13T00:38:14.796Z,81.59
2017-09-13T00:38:40.979Z,81.36
2017-09-13T00:39:07.130Z,81.3
2017-09-13T00:39:33.280Z,81.3
2017-09-13T00:39:59.422Z,81.4
2017-09-13T00:40:25.632Z,81.59
2017-09-13T00:40:51.767Z,81.02
2017-09-13T00:41:17.922Z,81.02
2017-09-13T00:41:44.061Z,81.02
2017-09-13T00:42:10.222Z,80.98
2017-09-13T00:42:36.405Z,81.02
2017-09-13T00:43:02.549Z,80.82
2017-09-13T00:43:28.704Z,80.92
2017-09-13T00:43:54.850Z,81.11
2017-09-13T00:44:21.031Z,81.02
2017-09-13T00:44:47.172Z,81.02
2017-09-13T00:45:13.321Z,80.92
2017-09-13T00:45:39.470Z,81.59
2017-09-13T00:46:05.619Z,81.65
2017-09-13T00:46:31.765Z,81.16
2017-09-13T00:46:57.907Z,81.78
2017-09-13T00:47:24.055Z,81.4
2017-09-13T00:47:50.194Z,81.45
2017-09-13T00:48:16.337Z,81.45
2017-09-13T00:48:42.489Z,81.3
2017-09-13T00:49:08.608Z,81.11
2017-09-13T00:49:34.757Z,81.21
2017-09-13T00:50:00.876Z,80.69
2017-09-13T00:50:27.000Z,81.65
2017-09-13T00:50:53.127Z,81.65
2017-09-13T00:51:19.246Z,81.3
2017-09-13T00:51:45.374Z,80.82
2017-09-13T00:52:11.511Z,80.82
2017-09-13T00:52:37.632Z,80.73
2017-09-13T00:53:03.757Z,80.92
2017-09-13T00:53:29.879Z,81.02
2017-09-13T00:53:56.010Z,81.02
2017-09-13T00:54:22.126Z,81.02
2017-09-13T00:54:48.252Z,80.79
2017-09-13T00:55:14.375Z,81.02
2017-09-13T00:55:40.493Z,80.59
2017-09-13T00:56:06.624Z,80.92
2017-09-13T00:56:32.746Z,80.92
2017-09-13T00:56:58.871Z,80.92
2017-09-13T00:57:24.991Z,80.98
2017-09-13T00:57:51.115Z,81.26
2017-09-13T00:58:17.247Z,81.11
2017-09-13T00:58:43.368Z,81.16
2017-09-13T00:59:09.495Z,81.3
2017-09-13T00:59:35.616Z,80.54
2017-09-13T01:00:01.743Z,81.21
2017-09-13T01:00:27.898Z,81.02
2017-09-13T01:00:54.024Z,80.92
2017-09-13T01:01:20.149Z,80.92
2017-09-13T01:01:46.266Z,80.82
2017-09-13T01:02:12.397Z,80.25
2017-09-13T01:02:38.516Z,80.63
2017-09-13T01:03:04.636Z,80.44
2017-09-13T01:03:30.780Z,80.25
2017-09-13T01:03:56.926Z,80.44
2017-09-13T01:04:23.065Z,80.44
2017-09-13T01:04:49.185Z,80.35
2017-09-13T01:05:15.317Z,80.63
2017-09-13T01:05:41.442Z,80.54
2017-09-13T01:06:07.564Z,80.35
2017-09-13T01:06:33.688Z,80.44
2017-09-13T01:06:59.807Z,80.35
2017-09-13T01:07:25.944Z,80.73
2017-09-13T01:07:52.057Z,80.35
2017-09-13T01:08:18.180Z,80.82
2017-09-13T01:08:44.313Z,80.35
2017-09-13T01:09:10.430Z,80.73
2017-09-13T01:09:36.556Z,81.02
2017-09-13T01:10:02.676Z,80.82
2017-09-13T01:10:28.800Z,80.63
2017-09-13T01:10:54.942Z,80.16
2017-09-13T01:11:21.053Z,80.35
2017-09-13T01:11:47.189Z,79.87
2017-09-13T01:12:13.309Z,80.16
2017-09-13T01:12:39.430Z,80.16
2017-09-13T01:13:05.570Z,79.96
2017-09-13T01:13:31.706Z,80.16
2017-09-13T01:13:57.834Z,80.06
2017-09-13T01:14:23.951Z,79.96
2017-09-13T01:14:50.075Z,80.44
2017-09-13T01:15:16.204Z,80.44
2017-09-13T01:15:42.320Z,80.25
2017-09-13T01:16:08.448Z,80.16
2017-09-13T01:16:34.565Z,80.02
2017-09-13T01:17:00.693Z,80.35
2017-09-13T01:17:26.811Z,80.21
2017-09-13T01:17:52.933Z,80.3
2017-09-13T01:18:19.060Z,80.59
2017-09-13T01:18:45.180Z,80.63
2017-09-13T01:19:11.307Z,80.25
2017-09-13T01:19:37.432Z,80.25
2017-09-13T01:20:03.552Z,80.02
2017-09-13T01:20:29.679Z,79.77
2017-09-13T01:20:55.799Z,80.16
2017-09-13T01:21:21.920Z,80.16
2017-09-13T01:21:48.045Z,80.16
2017-09-13T01:22:14.167Z,80.21
2017-09-13T01:22:40.323Z,80.16
2017-09-13T01:23:06.441Z,80.06
2017-09-13T01:23:32.571Z,79.87
2017-09-13T01:23:58.693Z,80.25
2017-09-13T01:24:24.817Z,80.35
2017-09-13T01:24:50.943Z,80.25
2017-09-13T01:25:17.087Z,80.25
2017-09-13T01:25:43.209Z,79.77
2017-09-13T01:26:09.328Z,80.16
2017-09-13T01:26:35.447Z,80.35
2017-09-13T01:27:01.565Z,80.11
2017-09-13T01:27:27.693Z,80.16
2017-09-13T01:27:53.810Z,80.06
2017-09-13T01:28:19.926Z,79.96
2017-09-13T01:28:46.049Z,80.06
2017-09-13T01:29:12.169Z,79.96
2017-09-13T01:29:38.302Z,79.96
2017-09-13T01:30:04.424Z,79.49
2017-09-13T01:30:30.541Z,79.87
2017-09-13T01:30:56.665Z,79.87
2017-09-13T01:31:22.789Z,79.68
2017-09-13T01:31:48.933Z,80.06
2017-09-13T01:32:15.063Z,80.25
2017-09-13T01:32:41.180Z,79.96
2017-09-13T01:33:07.306Z,79.96
2017-09-13T01:33:33.431Z,79.58
2017-09-13T01:33:59.547Z,79.58
2017-09-13T01:34:25.675Z,79.96
2017-09-13T01:34:51.792Z,80.06
2017-09-13T01:35:17.938Z,79.68
2017-09-13T01:35:44.061Z,79.49
2017-09-13T01:36:10.187Z,79.77
2017-09-13T01:36:36.306Z,80.16
2017-09-13T01:37:02.427Z,79.77
2017-09-13T01:37:28.555Z,80.16
2017-09-13T01:37:54.672Z,79.77
2017-09-13T01:38:20.799Z,80.44
2017-09-13T01:38:46.920Z,80.06
2017-09-13T01:39:13.068Z,79.96
2017-09-13T01:39:39.191Z,80.25
2017-09-13T01:40:05.311Z,80.06
2017-09-13T01:40:31.439Z,80.25
2017-09-13T01:40:57.556Z,79.96
2017-09-13T01:41:23.678Z,79.77
2017-09-13T01:41:49.806Z,79.77
2017-09-13T01:42:15.929Z,79.96
2017-09-13T01:42:42.055Z,79.96
2017-09-13T01:43:08.180Z,79.96
2017-09-13T01:43:34.298Z,79.77
2017-09-13T01:44:00.426Z,80.35
2017-09-13T01:44:26.544Z,79.87
2017-09-13T01:44:52.664Z,79.87
2017-09-13T01:45:18.791Z,80.16
2017-09-13T01:45:44.909Z,79.49
2017-09-13T01:46:11.028Z,79.58
2017-09-13T01:46:37.156Z,79.96
2017-09-13T01:47:03.273Z,79.39
2017-09-13T01:47:29.403Z,79.58
2017-09-13T01:47:55.521Z,79.58
2017-09-13T01:48:21.641Z,79.49
2017-09-13T01:48:47.766Z,79.77
2017-09-13T01:49:13.892Z,79.58
2017-09-13T01:49:40.014Z,79.96
2017-09-13T01:50:06.131Z,79.96
2017-09-13T01:50:32.259Z,80.16
2017-09-13T01:50:58.384Z,80.16
2017-09-13T01:51:24.525Z,80.11
2017-09-13T01:51:50.647Z,80.25
2017-09-13T01:52:16.773Z,80.59
2017-09-13T01:52:42.897Z,80.92
2017-09-13T01:53:09.015Z,80.69
2017-09-13T01:53:35.145Z,80.92
2017-09-13T01:54:01.283Z,80.25
2017-09-13T01:54:27.410Z,80.25
2017-09-13T01:54:53.530Z,80.44
2017-09-13T01:55:19.655Z,80.59
2017-09-13T01:55:45.794Z,81.02
2017-09-13T01:56:11.926Z,81.07
2017-09-13T01:56:38.051Z,81.02
2017-09-13T01:57:04.176Z,81.4
2017-09-13T01:57:30.294Z,81.78
2017-09-13T01:57:56.420Z,81.88
2017-09-13T01:58:22.544Z,82.45
2017-09-13T01:58:48.667Z,82.89
2017-09-13T01:59:14.794Z,83.17
2017-09-13T01:59:40.918Z,83.17
2017-09-13T02:00:07.032Z,84.32
2017-09-13T02:00:33.155Z,84.7
2017-09-13T02:00:59.271Z,84.99
2017-09-13T02:01:25.397Z,86.33
2017-09-13T02:01:51.527Z,86.43
2017-09-13T02:02:17.646Z,86.52
2017-09-13T02:02:43.766Z,87.86
2017-09-13T02:03:09.894Z,87.57
2017-09-13T02:03:36.016Z,87.95
2017-09-13T02:04:02.138Z,88.43
2017-09-13T02:04:28.259Z,89.29
2017-09-13T02:04:54.384Z,89.29
2017-09-13T02:05:20.511Z,89.48
2017-09-13T02:05:46.632Z,88.91
2017-09-13T02:06:12.751Z,89.77
2017-09-13T02:06:38.875Z,89.39
2017-09-13T02:07:04.991Z,89.77
2017-09-13T02:07:31.143Z,90.82
2017-09-13T02:07:57.258Z,90.82
2017-09-13T02:08:23.388Z,90.63
2017-09-13T02:08:49.507Z,91.11
2017-09-13T02:09:15.627Z,90.92
2017-09-13T02:09:41.759Z,91.88
2017-09-13T02:10:07.872Z,92.07
2017-09-13T02:10:33.997Z,92.25
2017-09-13T02:11:00.116Z,91.93
2017-09-13T02:11:26.245Z,92.5
2017-09-13T02:11:52.362Z,92.97
2017-09-13T02:12:18.489Z,94.31
2017-09-13T02:12:44.610Z,94.41
2017-09-13T02:13:10.738Z,94.98
2017-09-13T02:13:36.880Z,96.13
2017-09-13T02:14:03.001Z,96.42
2017-09-13T02:14:29.128Z,96.99
2017-09-13T02:14:55.245Z,98.13
2017-09-13T02:15:21.366Z,97.85
2017-09-13T02:15:47.494Z,97.56
2017-09-13T02:16:13.612Z,98.42
2017-09-13T02:16:39.739Z,99.76
2017-09-13T02:17:05.863Z,99.57
2017-09-13T02:17:31.981Z,99.09
2017-09-13T02:17:58.100Z,99.19
2017-09-13T02:18:24.221Z,99.99
2017-09-13T02:18:50.348Z,99.99
2017-09-13T02:19:16.474Z,99.99
2017-09-13T02:19:42.596Z,99.99
2017-09-13T02:20:08.710Z,99.99
2017-09-13T02:20:34.859Z,99.99
2017-09-13T02:21:00.982Z,99.99
2017-09-13T02:21:27.104Z,99.99
2017-09-13T02:21:53.231Z,99.99
2017-09-13T02:22:19.345Z,99.99
2017-09-13T02:22:45.479Z,99.99
2017-09-13T02:23:11.603Z,99.99
2017-09-13T02:23:37.724Z,99.99
2017-09-13T02:24:03.846Z,99.99
2017-09-13T02:24:29.966Z,99.99
2017-09-13T02:24:56.086Z,99.99
2017-09-13T02:25:22.208Z,99.99
2017-09-13T02:25:48.325Z,99.99
2017-09-13T02:26:14.453Z,99.99
2017-09-13T02:26:40.572Z,99.99
2017-09-13T02:27:06.701Z,99.99
2017-09-13T02:27:32.830Z,99.99
2017-09-13T02:27:58.945Z,99.99
2017-09-13T02:28:25.067Z,99.99
2017-09-13T02:28:51.192Z,99.99
2017-09-13T02:29:17.316Z,99.99
2017-09-13T02:29:43.433Z,99.99
2017-09-13T02:30:09.556Z,99.99
2017-09-13T02:30:35.682Z,99.99
2017-09-13T02:31:01.799Z,99.99
2017-09-13T02:31:27.924Z,99.99
2017-09-13T02:31:54.052Z,99.99
2017-09-13T02:32:20.169Z,99.99
2017-09-13T02:32:46.298Z,99.99
2017-09-13T02:33:12.417Z,99.99
2017-09-13T02:33:38.559Z,99.99
2017-09-13T02:34:04.688Z,99.99
2017-09-13T02:34:30.806Z,99.99
2017-09-13T02:34:56.932Z,99.99
2017-09-13T02:35:23.051Z,99.99
2017-09-13T02:35:49.179Z,99.99
2017-09-13T02:36:15.301Z,99.99
2017-09-13T02:36:41.419Z,99.99
2017-09-13T02:37:07.539Z,99.99
2017-09-13T02:37:33.671Z,99.99
2017-09-13T02:37:59.791Z,99.99
2017-09-13T02:38:25.909Z,99.99
2017-09-13T02:38:52.035Z,99.99
2017-09-13T02:39:18.175Z,99.99
2017-09-13T02:39:44.303Z,99.99
2017-09-13T02:40:10.426Z,99.99
2017-09-13T02:40:36.546Z,99.99
2017-09-13T02:41:02.672Z,99.99
2017-09-13T02:41:28.795Z,99.99
2017-09-13T02:41:54.913Z,99.99
2017-09-13T02:42:21.034Z,99.99
2017-09-13T02:42:47.156Z,99.99
2017-09-13T02:43:13.278Z,99.99
2017-09-13T02:43:39.404Z,99.99
2017-09-13T02:44:05.523Z,99.99
2017-09-13T02:44:31.645Z,99.99
2017-09-13T02:44:57.768Z,99.99
2017-09-13T02:45:23.895Z,99.99
2017-09-13T02:45:50.025Z,99.99
2017-09-13T02:46:16.142Z,99.99
2017-09-13T02:46:42.271Z,99.99
2017-09-13T02:47:08.388Z,99.99
2017-09-13T02:47:34.510Z,99.99
2017-09-13T02:48:00.630Z,99.99
2017-09-13T02:48:26.760Z,99.99
2017-09-13T02:48:52.884Z,99.99
2017-09-13T02:49:19.004Z,99.99
2017-09-13T02:49:45.125Z,99.99
2017-09-13T02:50:11.260Z,99.99
2017-09-13T02:50:37.386Z,99.99
2017-09-13T02:51:03.502Z,99.99
2017-09-13T02:51:29.629Z,99.99
2017-09-13T02:51:55.755Z,99.99
2017-09-13T02:52:21.872Z,99.99
2017-09-13T02:52:48.001Z,99.99
2017-09-13T02:53:14.119Z,99.99
2017-09-13T02:53:40.239Z,99.99
2017-09-13T02:54:06.365Z,99.99
2017-09-13T02:54:32.486Z,99.99
2017-09-13T02:54:58.631Z,99.99
2017-09-13T02:55:24.757Z,99.99
2017-09-13T02:55:50.895Z,99.99
2017-09-13T02:56:17.015Z,99.99
2017-09-13T02:56:43.142Z,99.99
2017-09-13T02:57:09.259Z,99.99
2017-09-13T02:57:35.413Z,99.99
2017-09-13T02:58:01.509Z,99.99
2017-09-13T02:58:27.628Z,99.99
2017-09-13T02:58:53.752Z,99.99
2017-09-13T02:59:19.875Z,99.99
2017-09-13T02:59:45.999Z,99.99
2017-09-13T03:00:12.160Z,99.99
2017-09-13T03:00:38.287Z,99.99
2017-09-13T03:01:04.405Z,99.99
2017-09-13T03:01:30.523Z,99.99
2017-09-13T03:01:56.653Z,99.99
2017-09-13T03:02:22.778Z,99.99
2017-09-13T03:02:48.894Z,99.99
2017-09-13T03:03:15.016Z,99.99
2017-09-13T03:03:41.133Z,99.99
2017-09-13T03:04:07.256Z,99.99
2017-09-13T03:04:33.384Z,99.99
2017-09-13T03:04:59.510Z,99.99
2017-09-13T03:05:25.627Z,99.99
2017-09-13T03:05:51.756Z,99.99
2017-09-13T03:06:17.871Z,99.99
2017-09-13T03:06:43.994Z,99.99
2017-09-13T03:07:10.122Z,99.99
2017-09-13T03:07:36.245Z,99.99
2017-09-13T03:08:02.361Z,99.99
2017-09-13T03:08:28.488Z,99.99
2017-09-13T03:08:54.630Z,99.99
2017-09-13T03:09:20.740Z,99.99
2017-09-13T03:09:46.888Z,99.99
2017-09-13T03:10:13.016Z,99.99
2017-09-13T03:10:39.143Z,99.99
2017-09-13T03:11:05.260Z,99.99
2017-09-13T03:11:31.387Z,99.99
2017-09-13T03:11:57.512Z,99.99
2017-09-13T03:12:23.633Z,99.99
2017-09-13T03:12:49.760Z,99.99
2017-09-13T03:13:15.881Z,99.99
2017-09-13T03:13:41.998Z,99.99
2017-09-13T03:14:08.123Z,99.99
2017-09-13T03:14:34.247Z,99.99
2017-09-13T03:15:00.365Z,99.99
2017-09-13T03:15:26.485Z,99.99
2017-09-13T03:15:52.614Z,99.99
2017-09-13T03:16:18.734Z,99.99
2017-09-13T03:16:44.850Z,99.99
2017-09-13T03:17:10.979Z,99.99
2017-09-13T03:17:37.099Z,99.99
2017-09-13T03:18:03.223Z,99.99
2017-09-13T03:18:29.340Z,99.99
2017-09-13T03:18:55.464Z,99.99
2017-09-13T03:19:21.588Z,99.99
2017-09-13T03:19:47.713Z,99.99
2017-09-13T03:20:13.835Z,99.99
2017-09-13T03:20:39.951Z,99.99
2017-09-13T03:21:06.078Z,99.99
2017-09-13T03:21:32.201Z,99.99
2017-09-13T03:21:58.319Z,99.99
2017-09-13T03:22:24.447Z,99.99
2017-09-13T03:22:50.589Z,99.99
2017-09-13T03:23:16.714Z,99.99
2017-09-13T03:23:42.830Z,99.99
2017-09-13T03:24:08.976Z,99.99
2017-09-13T03:24:35.105Z,99.99
2017-09-13T03:25:01.223Z,99.99
2017-09-13T03:25:27.350Z,99.99
2017-09-13T03:25:53.462Z,99.99
2017-09-13T03:26:19.584Z,99.99
2017-09-13T03:26:45.704Z,99.99
2017-09-13T03:27:11.835Z,99.99
2017-09-13T03:27:37.981Z,99.99
2017-09-13T03:28:04.096Z,99.99
2017-09-13T03:28:30.216Z,99.99
2017-09-13T03:28:56.344Z,99.99
2017-09-13T03:29:22.466Z,99.99
2017-09-13T03:29:48.610Z,99.99
2017-09-13T03:30:14.735Z,99.99
2017-09-13T03:30:40.879Z,99.99
2017-09-13T03:31:07.022Z,99.99
2017-09-13T03:31:33.149Z,99.99
2017-09-13T03:31:59.267Z,99.99
2017-09-13T03:32:25.396Z,99.99
2017-09-13T03:32:51.517Z,99.99
2017-09-13T03:33:17.630Z,99.99
2017-09-13T03:33:43.756Z,99.99
2017-09-13T03:34:09.873Z,99.99
2017-09-13T03:34:36.003Z,99.99
2017-09-13T03:35:02.121Z,99.99
2017-09-13T03:35:28.248Z,99.99
2017-09-13T03:35:54.365Z,99.99
2017-09-13T03:36:20.492Z,99.99
2017-09-13T03:36:46.612Z,99.99
2017-09-13T03:37:12.756Z,99.99
2017-09-13T03:37:38.871Z,99.99
2017-09-13T03:38:04.992Z,99.99
2017-09-13T03:38:31.144Z,99.99
2017-09-13T03:38:57.266Z,99.99
2017-09-13T03:39:23.381Z,99.99
2017-09-13T03:39:49.502Z,99.99
2017-09-13T03:40:15.632Z,99.99
2017-09-13T03:40:41.748Z,99.99
2017-09-13T03:41:07.872Z,99.99
2017-09-13T03:41:33.999Z,99.99
2017-09-13T03:42:00.116Z,99.99
2017-09-13T03:42:26.260Z,99.99
2017-09-13T03:42:52.386Z,99.99
2017-09-13T03:43:18.506Z,99.99
2017-09-13T03:43:44.634Z,99.99
2017-09-13T03:44:10.752Z,99.99
2017-09-13T03:44:36.874Z,99.99
2017-09-13T03:45:03.004Z,99.99
2017-09-13T03:45:29.121Z,99.99
2017-09-13T03:45:55.241Z,99.99
2017-09-13T03:46:21.369Z,99.99
2017-09-13T03:46:47.484Z,99.99
2017-09-13T03:47:13.606Z,99.99
2017-09-13T03:47:39.731Z,99.99
2017-09-13T03:48:05.856Z,99.99
2017-09-13T03:48:31.977Z,99.99
2017-09-13T03:48:58.093Z,99.99
2017-09-13T03:49:24.211Z,99.99
2017-09-13T03:49:50.340Z,99.99
2017-09-13T03:50:16.464Z,99.99
2017-09-13T03:50:42.588Z,99.99
2017-09-13T03:51:08.711Z,99.99
2017-09-13T03:51:34.834Z,99.99
2017-09-13T03:52:00.951Z,99.99
2017-09-13T03:52:27.076Z,99.99
2017-09-13T03:52:53.201Z,99.99
2017-09-13T03:53:19.341Z,99.99
2017-09-13T03:53:45.463Z,99.99
2017-09-13T03:54:11.583Z,99.99
2017-09-13T03:54:37.706Z,99.99
2017-09-13T03:55:03.840Z,99.99
2017-09-13T03:55:29.962Z,99.99
2017-09-13T03:55:56.080Z,99.99
2017-09-13T03:56:22.203Z,99.99
2017-09-13T03:56:48.322Z,99.99
2017-09-13T03:57:14.443Z,99.99
2017-09-13T03:57:40.569Z,99.99
2017-09-13T03:58:06.692Z,99.99
2017-09-13T03:58:32.814Z,99.99
2017-09-13T03:58:58.931Z,99.99
2017-09-13T03:59:25.057Z,99.99
2017-09-13T03:59:51.184Z,99.99
2017-09-13T04:00:17.323Z,99.99
2017-09-13T04:00:43.449Z,99.99
2017-09-13T04:01:09.571Z,99.99
2017-09-13T04:01:35.694Z,99.99
2017-09-13T04:02:01.811Z,99.99
2017-09-13T04:02:27.940Z,99.99
2017-09-13T04:02:54.057Z,99.99
2017-09-13T04:03:20.181Z,99.99
2017-09-13T04:03:46.300Z,99.99
2017-09-13T04:04:12.421Z,99.99
2017-09-13T04:04:38.549Z,99.99
2017-09-13T04:05:04.666Z,99.99
2017-09-13T04:05:30.817Z,99.99
2017-09-13T04:05:56.940Z,99.99
2017-09-13T04:06:23.059Z,99.99
2017-09-13T04:06:49.184Z,99.99
2017-09-13T04:07:15.301Z,99.99
2017-09-13T04:07:41.422Z,99.99
2017-09-13T04:08:07.550Z,99.99
2017-09-13T04:08:33.674Z,99.99
2017-09-13T04:08:59.795Z,99.99
2017-09-13T04:09:25.918Z,99.99
2017-09-13T04:09:52.040Z,99.99
2017-09-13T04:10:18.163Z,99.99
2017-09-13T04:10:44.292Z,99.99
2017-09-13T04:11:10.408Z,99.99
2017-09-13T04:11:36.526Z,99.99
2017-09-13T04:12:02.652Z,99.99
2017-09-13T04:12:28.772Z,99.99
2017-09-13T04:12:54.899Z,99.99
2017-09-13T04:13:21.016Z,99.99
2017-09-13T04:13:47.147Z,99.99
2017-09-13T04:14:13.260Z,99.99
2017-09-13T04:14:39.389Z,99.99
2017-09-13T04:15:05.504Z,99.99
2017-09-13T04:15:31.632Z,99.99
2017-09-13T04:15:57.755Z,99.99
2017-09-13T04:16:23.903Z,99.99
2017-09-13T04:16:50.026Z,99.99
2017-09-13T04:17:16.152Z,99.99
2017-09-13T04:17:42.270Z,99.99
2017-09-13T04:18:08.394Z,99.99
2017-09-13T04:18:34.508Z,99.99
2017-09-13T04:19:00.632Z,99.99
2017-09-13T04:19:26.773Z,99.99
2017-09-13T04:19:52.901Z,99.99
2017-09-13T04:20:19.023Z,99.99
2017-09-13T04:20:45.150Z,99.99
2017-09-13T04:21:11.269Z,99.99
2017-09-13T04:21:37.389Z,99.99
2017-09-13T04:22:03.516Z,99.99
2017-09-13T04:22:29.638Z,99.99
2017-09-13T04:22:55.774Z,99.99
2017-09-13T04:23:21.894Z,99.99
2017-09-13T04:23:48.022Z,99.99
2017-09-13T04:24:14.145Z,99.99
2017-09-13T04:24:40.267Z,99.99
2017-09-13T04:25:06.385Z,99.99
2017-09-13T04:25:32.508Z,99.99
2017-09-13T04:25:58.635Z,99.99
2017-09-13T04:26:24.755Z,99.99
2017-09-13T04:26:50.875Z,99.99
2017-09-13T04:27:17.002Z,99.99
2017-09-13T04:27:43.120Z,99.99
2017-09-13T04:28:09.247Z,99.99
2017-09-13T04:28:35.365Z,99.99
2017-09-13T04:29:01.509Z,99.99
2017-09-13T04:29:27.626Z,99.99
2017-09-13T04:29:53.756Z,99.99
2017-09-13T04:30:19.879Z,99.99
2017-09-13T04:30:45.996Z,99.99
2017-09-13T04:31:12.124Z,99.99
2017-09-13T04:31:38.261Z,99.99
2017-09-13T04:32:04.385Z,99.99
2017-09-13T04:32:30.499Z,99.99
2017-09-13T04:32:56.619Z,99.99
2017-09-13T04:33:22.749Z,99.99
2017-09-13T04:33:48.873Z,99.99
2017-09-13T04:34:14.989Z,99.99
2017-09-13T04:34:41.108Z,99.99
2017-09-13T04:35:07.239Z,99.99
2017-09-13T04:35:33.354Z,99.99
2017-09-13T04:35:59.489Z,99.99
2017-09-13T04:36:25.616Z,99.99
2017-09-13T04:36:51.738Z,99.99
2017-09-13T04:37:17.858Z,99.99
2017-09-13T04:37:43.976Z,99.99
2017-09-13T04:38:10.100Z,99.99
2017-09-13T04:38:36.227Z,99.99
2017-09-13T04:39:02.374Z,99.99
2017-09-13T04:39:28.489Z,99.99
2017-09-13T04:39:54.609Z,99.99
2017-09-13T04:40:20.761Z,99.99
2017-09-13T04:40:46.881Z,99.99
2017-09-13T04:41:13.030Z,99.99
2017-09-13T04:41:39.149Z,99.99
2017-09-13T04:42:05.263Z,99.99
2017-09-13T04:42:31.395Z,99.99
2017-09-13T04:42:57.520Z,99.99
2017-09-13T04:43:23.644Z,99.99
2017-09-13T04:43:49.759Z,99.99
2017-09-13T04:44:15.891Z,99.99
2017-09-13T04:44:42.009Z,99.99
2017-09-13T04:45:08.132Z,99.99
2017-09-13T04:45:34.257Z,99.99
2017-09-13T04:46:00.386Z,99.99
2017-09-13T04:46:26.496Z,99.99
2017-09-13T04:46:52.615Z,99.99
2017-09-13T04:47:18.748Z,99.99
2017-09-13T04:47:44.865Z,99.99
2017-09-13T04:48:11.009Z,99.99
2017-09-13T04:48:37.133Z,99.99
2017-09-13T04:49:03.250Z,99.99
2017-09-13T04:49:29.377Z,99.99
2017-09-13T04:49:55.498Z,99.99
2017-09-13T04:50:21.619Z,99.99
2017-09-13T04:50:47.741Z,99.99
2017-09-13T04:51:13.884Z,99.99
2017-09-13T04:51:40.002Z,99.99
2017-09-13T04:52:06.126Z,99.99
2017-09-13T04:52:32.255Z,99.99
2017-09-13T04:52:58.373Z,99.99
2017-09-13T04:53:24.497Z,99.99
2017-09-13T04:53:50.625Z,99.99
2017-09-13T04:54:16.740Z,99.99
2017-09-13T04:54:42.861Z,99.99
2017-09-13T04:55:08.988Z,99.99
2017-09-13T04:55:35.107Z,99.99
2017-09-13T04:56:01.234Z,99.99
2017-09-13T04:56:27.352Z,99.99
2017-09-13T04:56:53.476Z,99.99
2017-09-13T04:57:19.591Z,99.99
2017-09-13T04:57:45.719Z,99.99
2017-09-13T04:58:11.843Z,99.99
2017-09-13T04:58:37.961Z,99.99
2017-09-13T04:59:04.088Z,99.99
2017-09-13T04:59:30.207Z,99.99
2017-09-13T04:59:56.333Z,99.99
2017-09-13T05:00:22.452Z,99.99
2017-09-13T05:00:48.570Z,99.99
2017-09-13T05:01:14.701Z,99.99
2017-09-13T05:01:40.815Z,99.99
2017-09-13T05:02:06.942Z,99.99
2017-09-13T05:02:33.058Z,99.99
2017-09-13T05:02:59.187Z,99.99
2017-09-13T05:03:25.311Z,99.99
2017-09-13T05:03:51.428Z,99.99
2017-09-13T05:04:17.556Z,99.99
2017-09-13T05:04:43.668Z,99.99
2017-09-13T05:05:09.795Z,99.99
2017-09-13T05:05:35.913Z,99.99
2017-09-13T05:06:02.038Z,99.99
2017-09-13T05:06:28.163Z,99.99
2017-09-13T05:06:54.283Z,99.99
2017-09-13T05:07:20.414Z,99.99
2017-09-13T05:07:46.532Z,99.99
2017-09-13T05:08:12.653Z,99.99
2017-09-13T05:08:38.775Z,99.99
2017-09-13T05:09:04.899Z,99.99
2017-09-13T05:09:31.021Z,99.99
2017-09-13T05:09:57.148Z,99.99
2017-09-13T05:10:23.269Z,99.99
2017-09-13T05:10:49.389Z,99.99
2017-09-13T05:11:15.517Z,99.99
2017-09-13T05:11:41.631Z,99.99
2017-09-13T05:12:07.748Z,99.99
2017-09-13T05:12:33.876Z,99.99
2017-09-13T05:13:00.002Z,99.99
2017-09-13T05:13:26.122Z,99.99
2017-09-13T05:13:52.243Z,99.99
2017-09-13T05:14:18.374Z,99.99
2017-09-13T05:14:44.490Z,99.99
2017-09-13T05:15:10.619Z,99.99
2017-09-13T05:15:36.738Z,99.99
2017-09-13T05:16:02.866Z,99.99
2017-09-13T05:16:28.983Z,99.99
2017-09-13T05:16:55.110Z,99.99
2017-09-13T05:17:21.232Z,99.99
2017-09-13T05:17:47.349Z,99.99
2017-09-13T05:18:13.476Z,99.99
2017-09-13T05:18:39.600Z,99.99
2017-09-13T05:19:05.716Z,99.99
2017-09-13T05:19:31.845Z,99.99
2017-09-13T05:19:57.962Z,99.99
2017-09-13T05:20:24.089Z,99.99
2017-09-13T05:20:50.214Z,99.99
2017-09-13T05:21:16.334Z,99.99
2017-09-13T05:21:42.458Z,99.99
2017-09-13T05:22:08.578Z,99.99
2017-09-13T05:22:34.695Z,99.99
2017-09-13T05:23:00.822Z,99.99
2017-09-13T05:23:26.949Z,99.99
2017-09-13T05:23:53.066Z,99.99
2017-09-13T05:24:19.211Z,99.99
2017-09-13T05:24:45.335Z,99.99
2017-09-13T05:25:11.459Z,99.99
2017-09-13T05:25:37.575Z,99.99
2017-09-13T05:26:03.703Z,99.99
2017-09-13T05:26:29.820Z,99.99
2017-09-13T05:26:55.947Z,99.99
2017-09-13T05:27:22.065Z,99.99
2017-09-13T05:27:48.191Z,99.99
2017-09-13T05:28:14.313Z,99.99
2017-09-13T05:28:40.439Z,99.99
2017-09-13T05:29:06.558Z,99.99
2017-09-13T05:29:32.687Z,99.99
2017-09-13T05:29:58.806Z,99.99
2017-09-13T05:30:24.935Z,99.99
2017-09-13T05:30:51.069Z,99.99
2017-09-13T05:31:17.191Z,99.99
2017-09-13T05:31:43.312Z,99.99
2017-09-13T05:32:09.432Z,99.99
2017-09-13T05:32:35.553Z,99.99
2017-09-13T05:33:01.680Z,99.99
2017-09-13T05:33:27.803Z,99.99
2017-09-13T05:33:53.918Z,99.99
2017-09-13T05:34:20.046Z,99.99
2017-09-13T05:34:46.167Z,99.99
2017-09-13T05:35:12.287Z,99.99
2017-09-13T05:35:38.417Z,99.99
2017-09-13T05:36:04.527Z,99.99
2017-09-13T05:36:30.643Z,99.99
2017-09-13T05:36:56.768Z,99.99